Latest Weather Observations for Wattamolla

IDN60801

Issued at 12:43 am EST Saturday 17 April 2021 (issued every 10 minutes, with the page automatically refreshed every 10 minutes)

About weather observations | Map of weather stations | Latest weather observations for NSW | Other Formats
Station Details ID: 066208 Name: WATTAMOLLA AWS Lat: -34.14 Lon: 151.12 Height: 44.0 m
Data from the previous 72 hours. | See also: Recent months at Wattamolla
Date/Time
EST
Temp
°C
App
Temp
°C
Dew
Point
°C
Rel
Hum
%
Delta-T
°C
Wind Press
QNH
hPa
Press
MSL
hPa
Rain since
9am
mm
Dir  Spd
km/h
Gust
km/h
Spd
kts
Gust
kts
17/12:30am - - - - - SE 17 26 9 14 - - -
17/12:00am - - - - - SE 19 28 10 15 - - -
 
Date/Time
EST
Temp
°C
App
Temp
°C
Dew
Point
°C
Rel
Hum
%
Delta-T
°C
Wind Press
QNH
hPa
Press
MSL
hPa
Rain since
9am
mm
Dir  Spd
km/h
Gust
km/h
Spd
kts
Gust
kts
16/11:30pm - - - - - SE 17 26 9 14 - - -
16/11:00pm - - - - - SE 22 30 12 16 - - -
16/10:30pm - - - - - SE 22 32 12 17 - - -
16/10:00pm - - - - - SE 20 30 11 16 - - -
16/09:30pm - - - - - SE 24 30 13 16 - - -
16/09:00pm - - - - - SE 28 35 15 19 - - -
16/08:30pm - - - - - SSE 30 35 16 19 - - -
16/08:00pm - - - - - SSE 26 37 14 20 - - -
16/07:30pm - - - - - SSE 20 30 11 16 - - -
16/07:00pm - - - - - SSE 26 33 14 18 - - -
16/06:30pm - - - - - SSE 26 39 14 21 - - -
16/06:00pm - - - - - SSE 32 44 17 24 - - -
16/05:30pm - - - - - SSE 32 48 17 26 - - -
16/05:22pm - - - - - SSE 30 48 16 26 - - -
16/05:00pm - - - - - SSE 32 41 17 22 - - -
16/04:30pm - - - - - SSE 32 44 17 24 - - -
16/04:00pm - - - - - SSE 32 44 17 24 - - -
16/03:30pm - - - - - SSE 32 50 17 27 - - -
16/03:28pm - - - - - SSE 32 50 17 27 - - -
16/03:00pm - - - - - SSE 37 50 20 27 - - -
16/02:30pm - - - - - SSE 35 48 19 26 - - -
16/02:00pm - - - - - SSE 39 48 21 26 - - -
16/01:30pm - - - - - SSE 39 52 21 28 - - -
16/01:00pm - - - - - SSE 35 52 19 28 - - -
16/12:30pm - - - - - SSE 39 52 21 28 - - -
16/12:00pm - - - - - SSE 43 56 23 30 - - -
16/11:30am - - - - - SSE 46 57 25 31 - - -
16/11:00am - - - - - S 48 56 26 30 - - -
16/10:30am - - - - - SSE 46 57 25 31 - - -
16/10:00am - - - - - S 43 50 23 27 - - -
16/09:30am - - - - - S 39 44 21 24 - - -
16/09:00am - - - - - S 37 50 20 27 - - -
16/08:30am - - - - - S 37 44 20 24 - - -
16/08:00am - - - - - S 32 39 17 21 - - -
16/07:30am - - - - - SSW 15 22 8 12 - - -
16/07:00am - - - - - WSW 19 26 10 14 - - -
16/06:30am - - - - - W 13 19 7 10 - - -
16/06:00am - - - - - WSW 17 24 9 13 - - -
16/05:30am - - - - - W 19 22 10 12 - - -
16/05:00am - - - - - WSW 17 24 9 13 - - -
16/04:30am - - - - - W 22 28 12 15 - - -
16/04:00am - - - - - W 19 28 10 15 - - -
16/03:30am - - - - - WSW 19 30 10 16 - - -
16/03:00am - - - - - WSW 24 35 13 19 - - -
16/02:30am - - - - - WSW 26 37 14 20 - - -
16/02:00am - - - - - WSW 20 32 11 17 - - -
16/01:30am - - - - - WSW 24 33 13 18 - - -
16/01:00am - - - - - WSW 26 39 14 21 - - -
16/12:30am - - - - - W 30 43 16 23 - - -
16/12:00am - - - - - W 28 39 15 21 - - -
 
Date/Time
EST
Temp
°C
App
Temp
°C
Dew
Point
°C
Rel
Hum
%
Delta-T
°C
Wind Press
QNH
hPa
Press
MSL
hPa
Rain since
9am
mm
Dir  Spd
km/h
Gust
km/h
Spd
kts
Gust
kts
15/11:30pm - - - - - W 32 50 17 27 - - -
15/11:11pm - - - - - W 30 48 16 26 - - -
15/11:00pm - - - - - W 28 41 15 22 - - -
15/10:30pm - - - - - W 20 33 11 18 - - -
15/10:00pm - - - - - WNW 24 33 13 18 - - -
15/09:30pm - - - - - WNW 20 28 11 15 - - -
15/09:00pm - - - - - W 30 43 16 23 - - -
15/08:30pm - - - - - WNW 22 33 12 18 - - -
15/08:00pm - - - - - WNW 20 30 11 16 - - -
15/07:30pm - - - - - W 15 17 8 9 - - -
15/07:00pm - - - - - W 13 17 7 9 - - -
15/06:30pm - - - - - W 15 20 8 11 - - -
15/06:00pm - - - - - W 9 11 5 6 - - -
15/05:30pm - - - - - SSW 7 9 4 5 - - -
15/05:00pm - - - - - S 6 7 3 4 - - -
15/04:30pm - - - - - SSE 9 13 5 7 - - -
15/04:00pm - - - - - S 11 13 6 7 - - -
15/03:30pm - - - - - WNW 15 24 8 13 - - -
15/03:00pm - - - - - W 15 26 8 14 - - -
15/02:30pm - - - - - W 17 26 9 14 - - -
15/02:00pm - - - - - W 20 30 11 16 - - -
15/01:30pm - - - - - W 13 22 7 12 - - -
15/01:00pm - - - - - W 17 26 9 14 - - -
15/12:30pm - - - - - W 17 28 9 15 - - -
15/12:00pm - - - - - W 19 30 10 16 - - -
15/11:30am - - - - - W 19 28 10 15 - - -
15/11:00am - - - - - WNW 20 35 11 19 - - -
15/10:30am - - - - - W 20 33 11 18 - - -
15/10:00am - - - - - W 20 37 11 20 - - -
15/09:30am - - - - - WSW 15 26 8 14 - - -
15/09:00am - - - - - W 13 20 7 11 - - -
15/08:30am - - - - - W 15 19 8 10 - - -
15/08:00am - - - - - W 17 22 9 12 - - -
15/07:30am - - - - - WNW 19 28 10 15 - - -
15/07:00am - - - - - WNW 17 22 9 12 - - -
15/06:30am - - - - - NW 9 13 5 7 - - -
15/06:00am - - - - - W 15 19 8 10 - - -
15/05:30am - - - - - W 15 17 8 9 - - -
15/05:00am - - - - - WSW 15 19 8 10 - - -
15/04:30am - - - - - SW 17 19 9 10 - - -
15/04:00am - - - - - WSW 17 20 9 11 - - -
15/03:30am - - - - - SW 15 24 8 13 - - -
15/03:00am - - - - - SSW 15 22 8 12 - - -
15/02:30am - - - - - SSW 17 24 9 13 - - -
15/02:00am - - - - - SW 17 20 9 11 - - -
15/01:30am - - - - - SW 17 19 9 10 - - -
15/01:00am - - - - - SW 17 19 9 10 - - -
15/12:30am - - - - - SW 13 17 7 9 - - -
15/12:00am - - - - - S 15 24 8 13 - - -
 
Date/Time
EST
Temp
°C
App
Temp
°C
Dew
Point
°C
Rel
Hum
%
Delta-T
°C
Wind Press
QNH
hPa
Press
MSL
hPa
Rain since
9am
mm
Dir  Spd
km/h
Gust
km/h
Spd
kts
Gust
kts
14/11:30pm - - - - - S 13 20 7 11 - - -
14/11:00pm - - - - - WNW 15 26 8 14 - - -
14/10:30pm - - - - - NW 17 24 9 13 - - -
14/10:00pm - - - - - NW 20 28 11 15 - - -
14/09:30pm - - - - - NW 20 26 11 14 - - -
14/09:00pm - - - - - NW 19 22 10 12 - - -
14/08:30pm - - - - - WNW 19 26 10 14 - - -
14/08:00pm - - - - - WNW 15 19 8 10 - - -
14/07:30pm - - - - - WNW 13 17 7 9 - - -
14/07:00pm - - - - - WNW 9 11 5 6 - - -
14/06:30pm - - - - - SW 11 15 6 8 - - -
14/06:00pm - - - - - NW 9 9 5 5 - - -
14/05:30pm - - - - - N 7 7 4 4 - - -
14/05:00pm - - - - - NNE 7 9 4 5 - - -
14/04:30pm - - - - - NE 9 13 5 7 - - -
14/04:00pm - - - - - ENE 11 17 6 9 - - -
14/03:30pm - - - - - N 9 15 5 8 - - -
14/03:00pm - - - - - N 13 17 7 9 - - -
14/02:30pm - - - - - NNW 11 17 6 9 - - -
14/02:00pm - - - - - N 15 20 8 11 - - -
14/01:30pm - - - - - N 13 19 7 10 - - -
14/01:00pm - - - - - N 13 17 7 9 - - -
14/12:30pm - - - - - NNW 13 19 7 10 - - -
14/12:00pm - - - - - NNW 15 22 8 12 - - -
14/11:30am - - - - - NNW 13 28 7 15 - - -
14/11:00am - - - - - N 15 26 8 14 - - -
14/10:30am - - - - - N 11 17 6 9 - - -
14/10:00am - - - - - NNW 9 15 5 8 - - -
14/09:30am - - - - - NNW 9 17 5 9 - - -
14/09:00am - - - - - NNW 15 32 8 17 - - -
14/08:30am - - - - - N 11 17 6 9 - - -
14/08:00am - - - - - N 9 13 5 7 - - -
14/07:30am - - - - - NE 9 13 5 7 - - -
14/07:00am - - - - - NNE 13 17 7 9 - - -
14/06:30am - - - - - N 11 15 6 8 - - -
14/06:00am - - - - - NNW 13 20 7 11 - - -
14/05:30am - - - - - NNW 11 19 6 10 - - -
14/05:00am - - - - - NNW 11 17 6 9 - - -
14/04:30am - - - - - NNW 17 26 9 14 - - -
14/04:00am - - - - - NNW 24 35 13 19 - - -
14/03:30am - - - - - NW 24 35 13 19 - - -
14/03:00am - - - - - NW 20 32 11 17 - - -
14/02:30am - - - - - NW 19 28 10 15 - - -
14/02:00am - - - - - NW 19 30 10 16 - - -
14/01:30am - - - - - NNW 13 20 7 11 - - -
14/01:00am - - - - - NNW 13 19 7 10 - - -

Other formats

Comma delimited format used in spreadsheet applications
http://www.bom.gov.au/fwo/IDN60801/IDN60801.95752.axf

JavaScript Object Notation format (JSON) in row-major order
http://www.bom.gov.au/fwo/IDN60801/IDN60801.95752.json

Data quality

Most of these data are generated automatically and are frequently updated. Quality checks on data are not normally performed. It is possible for incorrect values to appear. Refer to information at About Latest Weather Observations and please check the disclaimer before using these data.